createdAt,value
2023-05-17T00:00:54.142Z,50180.43
2023-05-17T00:03:22.385Z,50187.23
2023-05-17T00:05:51.385Z,50195.63
2023-05-17T00:08:19.578Z,50187.23
2023-05-17T00:10:47.747Z,50192.82
2023-05-17T00:13:15.889Z,50198.83
2023-05-17T00:15:45.228Z,50202.02
2023-05-17T00:18:13.660Z,50188.03
2023-05-17T00:20:41.952Z,50174.83
2023-05-17T00:23:13.650Z,50182.83
2023-05-17T00:25:41.879Z,50186.43
2023-05-17T00:28:10.175Z,50179.23
2023-05-17T00:30:38.323Z,50185.23
2023-05-17T00:33:06.639Z,50185.23
2023-05-17T00:35:34.858Z,50170.04
2023-05-17T00:38:03.314Z,50196.03
2023-05-17T00:40:32.062Z,50191.63
2023-05-17T00:43:00.304Z,50204.02
2023-05-17T00:45:28.958Z,50186.03
2023-05-17T00:47:57.556Z,50183.23
2023-05-17T00:50:25.904Z,50193.63
2023-05-17T00:52:54.604Z,50176.03
2023-05-17T00:55:22.942Z,50177.63
2023-05-17T00:57:51.240Z,50180.83
2023-05-17T01:00:19.488Z,50184.43
2023-05-17T01:02:48.924Z,50189.63
2023-05-17T01:05:17.583Z,50182.03
2023-05-17T01:07:45.778Z,50176.83
2023-05-17T01:10:16.505Z,50182.03
2023-05-17T01:13:19.219Z,50180.03
2023-05-17T01:15:57.302Z,50174.43
2023-05-17T01:18:35.829Z,50176.83
2023-05-17T01:21:18.145Z,50176.83
2023-05-17T01:24:04.330Z,50173.23
2023-05-17T01:26:40.460Z,50192.43
2023-05-17T01:29:10.119Z,50198.82
2023-05-17T01:31:39.462Z,50193.63
2023-05-17T01:34:09.675Z,50170.43
2023-05-17T01:36:37.899Z,50178.43
2023-05-17T01:39:06.145Z,50177.63
2023-05-17T01:41:46.995Z,50184.83
2023-05-17T01:44:44.351Z,50184.03
2023-05-17T01:47:42.568Z,50164.84
2023-05-17T01:50:14.992Z,50166.84
2023-05-17T01:52:55.534Z,50172.43
2023-05-17T01:55:32.339Z,50167.64
2023-05-17T01:58:06.609Z,50182.43
2023-05-17T02:00:35.291Z,50173.63
2023-05-17T02:03:03.913Z,50171.23
2023-05-17T02:05:32.468Z,50178.43
2023-05-17T02:08:00.722Z,50164.84
2023-05-17T02:10:28.923Z,50174.03
2023-05-17T02:12:57.920Z,50173.63
2023-05-17T02:15:27.092Z,50178.43
2023-05-17T02:17:55.784Z,50169.24
2023-05-17T02:20:25.048Z,50188.43
2023-05-17T02:22:53.277Z,50184.43
2023-05-17T02:25:21.533Z,50181.63
2023-05-17T02:27:49.778Z,50170.43
2023-05-17T02:30:18.442Z,50184.03
2023-05-17T02:32:46.898Z,50174.03
2023-05-17T02:35:15.433Z,50195.23
2023-05-17T02:37:44.820Z,50177.23
2023-05-17T02:40:14.322Z,50178.03
2023-05-17T02:42:42.567Z,50179.63
2023-05-17T02:45:11.347Z,50172.43
2023-05-17T02:47:39.886Z,50189.23
2023-05-17T02:50:18.712Z,50204.02
2023-05-17T02:52:46.988Z,50183.23
2023-05-17T02:55:15.260Z,50180.03
2023-05-17T02:57:43.542Z,50194.03
2023-05-17T03:00:12.806Z,50186.43
2023-05-17T03:02:44.353Z,50188.82
2023-05-17T03:05:12.703Z,50192.02
2023-05-17T03:07:45.014Z,50184.43
2023-05-17T03:10:13.326Z,50185.23
2023-05-17T03:12:45.037Z,50187.23
2023-05-17T03:15:13.886Z,50185.63
2023-05-17T03:17:45.145Z,50192.83
2023-05-17T03:20:13.800Z,50190.02
2023-05-17T03:22:43.536Z,50192.02
2023-05-17T03:25:12.394Z,50200.82
2023-05-17T03:27:41.839Z,50182.03
2023-05-17T03:30:11.093Z,50182.43
2023-05-17T03:32:40.701Z,50190.43
2023-05-17T03:35:09.919Z,50185.23
2023-05-17T03:37:38.944Z,50192.83
2023-05-17T03:40:08.214Z,50199.63
2023-05-17T03:42:37.309Z,50183.23
2023-05-17T03:45:06.943Z,50191.23
2023-05-17T03:47:35.333Z,50193.23
2023-05-17T03:50:04.164Z,50196.43
2023-05-17T03:52:32.599Z,50186.03
2023-05-17T03:55:00.941Z,50164.43
2023-05-17T03:57:30.551Z,50180.83
2023-05-17T03:59:59.483Z,50181.63
2023-05-17T04:02:27.939Z,50167.63
2023-05-17T04:04:56.917Z,50182.43
2023-05-17T04:07:25.628Z,50163.63
2023-05-17T04:10:02.387Z,50177.23
2023-05-17T04:12:31.504Z,50167.64
2023-05-17T04:15:01.427Z,50185.63
2023-05-17T04:17:29.968Z,50166.84
2023-05-17T04:19:58.639Z,50164.84
2023-05-17T04:22:29.900Z,50173.23
2023-05-17T04:24:58.927Z,50156.84
2023-05-17T04:27:31.060Z,50150.44
2023-05-17T04:30:01.902Z,50148.44
2023-05-17T04:32:30.331Z,50170.83
2023-05-17T04:34:59.021Z,50180.43
2023-05-17T04:37:31.526Z,50166.43
2023-05-17T04:40:02.909Z,50174.04
2023-05-17T04:42:32.601Z,50152.04
2023-05-17T04:45:01.589Z,50161.24
2023-05-17T04:47:30.964Z,50154.44
2023-05-17T04:49:59.601Z,50163.24
2023-05-17T04:52:28.720Z,50162.44
2023-05-17T04:54:57.032Z,50165.23
2023-05-17T04:57:26.467Z,50166.04
2023-05-17T05:00:00.164Z,50166.04
2023-05-17T05:02:30.119Z,50158.04
2023-05-17T05:05:01.870Z,50145.64
2023-05-17T05:07:36.795Z,50168.44
2023-05-17T05:10:11.951Z,50148.45
2023-05-17T05:12:41.206Z,50155.64
2023-05-17T05:15:10.769Z,50171.63
2023-05-17T05:17:39.959Z,50168.84
2023-05-17T05:20:10.250Z,50155.24
2023-05-17T05:22:42.613Z,50140.84
2023-05-17T05:25:12.227Z,50174.83
2023-05-17T05:27:40.878Z,50143.24
2023-05-17T05:30:22.031Z,50160.44
2023-05-17T05:32:51.992Z,50148.44
2023-05-17T05:35:20.715Z,50148.44
2023-05-17T05:37:49.416Z,50152.84
2023-05-17T05:40:20.466Z,50162.04
2023-05-17T05:42:52.379Z,50152.04
2023-05-17T05:45:22.503Z,50158.84
2023-05-17T05:47:51.881Z,50172.03
2023-05-17T05:50:20.326Z,50146.84
2023-05-17T05:52:49.083Z,50154.84
2023-05-17T05:55:20.024Z,50153.64
2023-05-17T05:57:49.618Z,50169.24
2023-05-17T06:00:18.979Z,50158.04
2023-05-17T06:02:53.756Z,50160.04
2023-05-17T06:05:22.664Z,50153.24
2023-05-17T06:07:50.915Z,50134.45
2023-05-17T06:10:20.004Z,50150.44
2023-05-17T06:12:49.705Z,50144.84
2023-05-17T06:15:18.405Z,50155.24
2023-05-17T06:17:51.124Z,50156.44
2023-05-17T06:20:19.688Z,50139.64
2023-05-17T06:22:51.478Z,50148.84
2023-05-17T06:25:20.628Z,50152.44
2023-05-17T06:27:51.279Z,50142.45
2023-05-17T06:30:20.349Z,50151.24
2023-05-17T06:32:48.631Z,50126.05
2023-05-17T06:35:16.936Z,50136.04
2023-05-17T06:37:45.749Z,50157.64
2023-05-17T06:40:16.704Z,50140.04
2023-05-17T06:42:46.288Z,50148.84
2023-05-17T06:45:14.760Z,50132.84
2023-05-17T06:47:45.110Z,50146.84
2023-05-17T06:50:14.366Z,50139.24
2023-05-17T06:52:45.223Z,50136.45
2023-05-17T06:55:13.478Z,50134.84
2023-05-17T06:57:42.548Z,50122.05
2023-05-17T07:00:11.810Z,50126.45
2023-05-17T07:02:40.705Z,50136.04
2023-05-17T07:05:09.254Z,50138.45
2023-05-17T07:07:38.808Z,50127.65
2023-05-17T07:10:07.436Z,50120.45
2023-05-17T07:12:36.320Z,50124.05
2023-05-17T07:15:06.234Z,50118.05
2023-05-17T07:17:38.408Z,50127.25
2023-05-17T07:20:07.359Z,50138.45
2023-05-17T07:22:37.505Z,50128.85
2023-05-17T07:25:06.975Z,50128.85
2023-05-17T07:27:35.368Z,50112.45
2023-05-17T07:30:12.916Z,50132.05
2023-05-17T07:32:45.443Z,50120.05
2023-05-17T07:35:13.631Z,50123.65
2023-05-17T07:37:45.927Z,50132.05
2023-05-17T07:40:14.708Z,50128.05
2023-05-17T07:42:42.935Z,50129.25
2023-05-17T07:45:11.988Z,50129.65
2023-05-17T07:47:40.464Z,50145.24
2023-05-17T07:50:09.130Z,50125.65
2023-05-17T07:52:37.371Z,50121.65
2023-05-17T07:55:06.114Z,50128.45
2023-05-17T07:57:37.452Z,50136.05
2023-05-17T08:00:06.823Z,50127.25
2023-05-17T08:02:41.284Z,50117.65
2023-05-17T08:05:10.233Z,50120.05
2023-05-17T08:07:38.475Z,50110.05
2023-05-17T08:10:07.184Z,50130.05
2023-05-17T08:12:36.796Z,50116.05
2023-05-17T08:15:06.708Z,50108.05
2023-05-17T08:17:35.051Z,50111.66
2023-05-17T08:20:06.489Z,50105.66
2023-05-17T08:22:37.177Z,50113.65
2023-05-17T08:25:05.742Z,50101.26
2023-05-17T08:27:34.484Z,50089.26
2023-05-17T08:30:04.129Z,50100.46
2023-05-17T08:32:38.728Z,50106.46
2023-05-17T08:35:07.396Z,50104.86
2023-05-17T08:37:37.428Z,50112.85
2023-05-17T08:40:08.264Z,50116.86
2023-05-17T08:42:40.318Z,50128.85
2023-05-17T08:45:10.626Z,50115.25
2023-05-17T08:47:41.843Z,50122.45
2023-05-17T08:50:11.479Z,50105.66
2023-05-17T08:52:46.875Z,50111.66
2023-05-17T08:55:17.101Z,50112.05
2023-05-17T08:57:47.301Z,50120.85
2023-05-17T09:00:22.302Z,50113.25
2023-05-17T09:02:51.002Z,50108.86
2023-05-17T09:05:20.226Z,50103.26
2023-05-17T09:07:49.801Z,50108.05
2023-05-17T09:10:20.214Z,50092.06
2023-05-17T09:12:49.645Z,50112.86
2023-05-17T09:15:24.475Z,50123.25
2023-05-17T09:17:55.088Z,50110.05
2023-05-17T09:20:25.988Z,50123.65
2023-05-17T09:22:55.872Z,50109.66
2023-05-17T09:25:24.698Z,50110.86
2023-05-17T09:28:01.055Z,50126.05
2023-05-17T09:30:31.251Z,50099.66
2023-05-17T09:33:10.144Z,50110.05
2023-05-17T09:35:39.090Z,50128.05
2023-05-17T09:38:13.266Z,50108.05
2023-05-17T09:40:43.868Z,50120.05
2023-05-17T09:43:13.535Z,50106.86
2023-05-17T09:45:41.985Z,50109.26
2023-05-17T09:48:18.913Z,50100.86
2023-05-17T09:50:51.478Z,50120.05
2023-05-17T09:53:30.678Z,50115.25
2023-05-17T09:56:05.657Z,50115.25
2023-05-17T09:58:36.727Z,50118.45
2023-05-17T10:01:07.421Z,50121.65
2023-05-17T10:03:37.868Z,50110.05
2023-05-17T10:06:09.861Z,50115.66
2023-05-17T10:08:44.818Z,50111.66
2023-05-17T10:11:13.135Z,50105.26
2023-05-17T10:13:53.928Z,50092.46
2023-05-17T10:16:23.685Z,50120.85
2023-05-17T10:18:53.081Z,50112.45
2023-05-17T10:21:22.966Z,50114.45
2023-05-17T10:23:51.779Z,50102.46
2023-05-17T10:26:21.128Z,50104.05
2023-05-17T10:28:53.823Z,50114.05
2023-05-17T10:31:24.266Z,50096.06
2023-05-17T10:33:53.385Z,50096.46
2023-05-17T10:36:25.118Z,50115.65
2023-05-17T10:38:54.874Z,50119.26
2023-05-17T10:41:27.744Z,50111.25
2023-05-17T10:43:57.070Z,50118.45
2023-05-17T10:46:31.279Z,50097.66
2023-05-17T10:49:01.342Z,50117.25
2023-05-17T10:51:38.047Z,50123.65
2023-05-17T10:54:11.337Z,50110.45
2023-05-17T10:56:43.203Z,50119.25
2023-05-17T10:59:27.129Z,50110.85
2023-05-17T11:02:01.155Z,50109.26
2023-05-17T11:04:38.462Z,50106.46
2023-05-17T11:07:22.154Z,50112.85
2023-05-17T11:10:06.147Z,50106.46
2023-05-17T11:12:44.981Z,50112.45
2023-05-17T11:15:16.496Z,50110.45
2023-05-17T11:17:46.693Z,50101.66
2023-05-17T11:20:16.884Z,50106.46
2023-05-17T11:23:17.252Z,50100.86
2023-05-17T11:25:48.265Z,50115.25
2023-05-17T11:28:22.725Z,50106.86
2023-05-17T11:30:54.208Z,50097.66
2023-05-17T11:33:46.981Z,50099.66
2023-05-17T11:36:21.006Z,50105.26
2023-05-17T11:39:23.289Z,50113.65
2023-05-17T11:41:53.994Z,50100.86
2023-05-17T11:44:30.165Z,50124.05
2023-05-17T11:47:09.989Z,50126.85
2023-05-17T11:49:39.604Z,50111.26
2023-05-17T11:52:08.848Z,50125.65
2023-05-17T11:54:40.696Z,50124.85
2023-05-17T11:57:09.942Z,50122.45
2023-05-17T11:59:43.296Z,50139.64
2023-05-17T12:02:27.751Z,50136.45
2023-05-17T12:04:56.062Z,50135.64
2023-05-17T12:07:26.148Z,50148.84
2023-05-17T12:09:54.749Z,50142.45
2023-05-17T12:12:23.819Z,50122.85
2023-05-17T12:14:52.324Z,50140.04
2023-05-17T12:17:45.465Z,50132.05
2023-05-17T12:20:14.850Z,50130.45
2023-05-17T12:22:54.018Z,50135.65
2023-05-17T12:25:25.785Z,50126.05
2023-05-17T12:28:22.862Z,50120.45
2023-05-17T12:30:58.532Z,50131.25
2023-05-17T12:33:28.055Z,50129.25
2023-05-17T12:35:56.630Z,50118.46
2023-05-17T12:38:28.679Z,50158.44
2023-05-17T12:40:57.060Z,50143.24
2023-05-17T12:43:25.517Z,50154.84
2023-05-17T12:45:53.976Z,50126.45
2023-05-17T12:48:26.814Z,50136.85
2023-05-17T12:50:56.294Z,50128.05
2023-05-17T12:53:26.074Z,50130.45
2023-05-17T12:55:59.126Z,50142.04
2023-05-17T12:58:27.781Z,50136.04
2023-05-17T13:01:07.053Z,50122.85
2023-05-17T13:03:35.639Z,50140.84
2023-05-17T13:06:08.186Z,50142.04
2023-05-17T13:08:36.981Z,50139.25
2023-05-17T13:11:09.698Z,50150.44
2023-05-17T13:13:38.247Z,50141.64
2023-05-17T13:16:07.600Z,50136.05
2023-05-17T13:18:50.728Z,50136.45
2023-05-17T13:21:20.716Z,50149.64
2023-05-17T13:23:50.029Z,50136.85
2023-05-17T13:26:19.144Z,50134.04
2023-05-17T13:28:48.578Z,50135.64
2023-05-17T13:31:16.850Z,50154.04
2023-05-17T13:33:45.518Z,50133.65
2023-05-17T13:36:13.954Z,50130.45
2023-05-17T13:38:42.147Z,50131.65
2023-05-17T13:41:10.803Z,50138.04
2023-05-17T13:43:41.088Z,50121.25
2023-05-17T13:46:12.093Z,50142.05
2023-05-17T13:48:42.632Z,50127.25
2023-05-17T13:51:11.248Z,50114.05
2023-05-17T13:53:40.000Z,50124.05
2023-05-17T13:56:08.317Z,50138.84
2023-05-17T13:58:36.756Z,50137.25
2023-05-17T14:01:05.132Z,50128.05
2023-05-17T14:03:34.949Z,50132.84
2023-05-17T14:06:06.607Z,50122.05
2023-05-17T14:08:35.424Z,50114.45
2023-05-17T14:11:04.534Z,50114.05
2023-05-17T14:13:32.722Z,50126.85
2023-05-17T14:16:00.986Z,50132.45
2023-05-17T14:18:29.474Z,50139.64
2023-05-17T14:20:58.930Z,50114.05
2023-05-17T14:23:28.707Z,50126.05
2023-05-17T14:25:57.910Z,50127.25
2023-05-17T14:28:26.229Z,50137.25
2023-05-17T14:30:54.532Z,50118.85
2023-05-17T14:33:22.841Z,50140.45
2023-05-17T14:35:54.130Z,50118.85
2023-05-17T14:38:23.489Z,50143.24
2023-05-17T14:40:52.520Z,50130.05
2023-05-17T14:43:21.377Z,50148.04
2023-05-17T14:45:49.958Z,50136.85
2023-05-17T14:48:19.358Z,50130.85
2023-05-17T14:50:47.804Z,50132.45
2023-05-17T14:53:17.032Z,50144.44
2023-05-17T14:55:45.336Z,50150.04
2023-05-17T14:58:14.186Z,50144.04
2023-05-17T15:00:50.665Z,50142.84
2023-05-17T15:03:22.672Z,50142.45
2023-05-17T15:05:55.697Z,50156.44
2023-05-17T15:08:24.862Z,50148.84
2023-05-17T15:10:54.703Z,50150.04
2023-05-17T15:13:23.366Z,50144.45
2023-05-17T15:15:52.535Z,50136.85
2023-05-17T15:18:21.137Z,50138.04
2023-05-17T15:20:49.333Z,50149.24
2023-05-17T15:23:17.654Z,50119.65
2023-05-17T15:25:46.680Z,50122.85
2023-05-17T15:28:15.850Z,50125.25
2023-05-17T15:30:45.175Z,50122.85
2023-05-17T15:33:14.622Z,50120.05
2023-05-17T15:35:45.118Z,50136.45
2023-05-17T15:38:13.865Z,50145.64
2023-05-17T15:40:42.317Z,50137.65
2023-05-17T15:43:10.551Z,50141.64
2023-05-17T15:45:38.775Z,50144.04
2023-05-17T15:48:07.708Z,50153.24
2023-05-17T15:50:35.864Z,50152.04
2023-05-17T15:53:04.101Z,50143.24
2023-05-17T15:55:32.221Z,50149.24
2023-05-17T15:58:00.411Z,50150.84
2023-05-17T16:00:29.825Z,50162.04
2023-05-17T16:02:58.257Z,50154.04
2023-05-17T16:05:26.807Z,50156.84
2023-05-17T16:07:54.979Z,50156.84
2023-05-17T16:10:23.943Z,50153.64
2023-05-17T16:12:53.143Z,50151.64
2023-05-17T16:15:22.422Z,50168.84
2023-05-17T16:17:54.803Z,50161.23
2023-05-17T16:20:26.123Z,50165.24
2023-05-17T16:22:55.797Z,50164.43
2023-05-17T16:25:25.916Z,50167.64
2023-05-17T16:27:55.251Z,50172.43
2023-05-17T16:30:23.579Z,50168.04
2023-05-17T16:32:54.117Z,50166.04
2023-05-17T16:35:23.556Z,50151.24
2023-05-17T16:37:52.381Z,50154.44
2023-05-17T16:40:21.494Z,50174.03
2023-05-17T16:42:51.438Z,50162.43
2023-05-17T16:45:21.427Z,50166.04
2023-05-17T16:47:50.518Z,50166.04
2023-05-17T16:50:19.209Z,50160.04
2023-05-17T16:52:48.466Z,50160.04
2023-05-17T16:55:16.730Z,50156.04
2023-05-17T16:57:46.277Z,50166.04
2023-05-17T17:00:14.926Z,50160.84
2023-05-17T17:02:43.245Z,50170.84
2023-05-17T17:05:11.850Z,50181.23
2023-05-17T17:07:40.177Z,50185.63
2023-05-17T17:10:11.271Z,50167.24
2023-05-17T17:12:39.566Z,50164.04
2023-05-17T17:15:09.636Z,50176.03
2023-05-17T17:17:37.973Z,50171.23
2023-05-17T17:20:09.502Z,50175.23
2023-05-17T17:22:37.906Z,50176.03
2023-05-17T17:25:07.679Z,50196.82
2023-05-17T17:27:36.297Z,50178.03
2023-05-17T17:30:05.539Z,50176.43
2023-05-17T17:32:34.184Z,50162.84
2023-05-17T17:35:02.906Z,50183.23
2023-05-17T17:37:31.944Z,50174.43
2023-05-17T17:40:01.632Z,50184.03
2023-05-17T17:42:32.018Z,50180.43
2023-05-17T17:45:01.568Z,50191.23
2023-05-17T17:47:30.323Z,50175.23
2023-05-17T17:49:58.591Z,50166.04
2023-05-17T17:52:27.413Z,50174.84
2023-05-17T17:54:55.756Z,50173.63
2023-05-17T17:57:24.045Z,50166.04
2023-05-17T17:59:52.277Z,50167.23
2023-05-17T18:02:20.613Z,50183.63
2023-05-17T18:04:48.847Z,50174.83
2023-05-17T18:07:18.651Z,50180.83
2023-05-17T18:09:46.922Z,50169.63
2023-05-17T18:12:15.299Z,50184.83
2023-05-17T18:14:43.546Z,50174.43
2023-05-17T18:17:11.879Z,50166.04
2023-05-17T18:19:40.177Z,50175.63
2023-05-17T18:22:09.159Z,50185.23
2023-05-17T18:24:38.192Z,50198.02
2023-05-17T18:27:06.559Z,50183.63
2023-05-17T18:29:34.771Z,50177.23
2023-05-17T18:32:06.929Z,50173.63
2023-05-17T18:34:36.110Z,50188.43
2023-05-17T18:37:04.711Z,50182.82
2023-05-17T18:39:33.000Z,50198.42
2023-05-17T18:42:02.006Z,50183.63
2023-05-17T18:44:30.814Z,50172.44
2023-05-17T18:46:59.321Z,50188.83
2023-05-17T18:49:27.619Z,50192.03
2023-05-17T18:51:58.960Z,50187.63
2023-05-17T18:54:27.505Z,50189.63
2023-05-17T18:56:57.629Z,50189.23
2023-05-17T18:59:26.709Z,50188.83
2023-05-17T19:01:56.607Z,50200.82
2023-05-17T19:04:24.912Z,50195.23
2023-05-17T19:06:53.150Z,50192.83
2023-05-17T19:09:21.340Z,50181.63
2023-05-17T19:11:51.159Z,50181.23
2023-05-17T19:14:19.610Z,50183.23
2023-05-17T19:16:50.300Z,50179.23
2023-05-17T19:19:18.631Z,50185.63
2023-05-17T19:21:46.778Z,50182.84
2023-05-17T19:24:15.015Z,50186.43
2023-05-17T19:26:43.256Z,50188.03
2023-05-17T19:29:11.468Z,50184.43
2023-05-17T19:31:41.266Z,50191.63
2023-05-17T19:34:09.650Z,50179.63
2023-05-17T19:36:37.976Z,50178.03
2023-05-17T19:39:06.437Z,50191.63
2023-05-17T19:41:34.667Z,50194.43
2023-05-17T19:44:04.811Z,50181.23
2023-05-17T19:46:33.071Z,50191.63
2023-05-17T19:49:02.503Z,50179.63
2023-05-17T19:51:31.659Z,50168.04
2023-05-17T19:53:59.836Z,50180.43
2023-05-17T19:56:28.165Z,50182.83
2023-05-17T19:58:56.369Z,50182.03
2023-05-17T20:01:27.585Z,50192.82
2023-05-17T20:03:55.987Z,50198.43
2023-05-17T20:06:26.592Z,50174.83
2023-05-17T20:08:54.754Z,50186.83
2023-05-17T20:11:22.971Z,50180.43
2023-05-17T20:13:55.983Z,50186.43
2023-05-17T20:16:28.095Z,50176.83
2023-05-17T20:18:58.885Z,50187.63
2023-05-17T20:21:27.198Z,50198.43
2023-05-17T20:24:03.726Z,50179.63
2023-05-17T20:26:37.015Z,50186.03
2023-05-17T20:29:07.561Z,50194.82
2023-05-17T20:31:37.154Z,50186.43
2023-05-17T20:34:06.768Z,50188.43
2023-05-17T20:36:35.118Z,50182.83
2023-05-17T20:39:04.701Z,50176.03
2023-05-17T20:41:32.876Z,50192.43
2023-05-17T20:44:02.532Z,50185.63
2023-05-17T20:46:31.195Z,50188.83
2023-05-17T20:49:01.255Z,50198.82
2023-05-17T20:51:29.428Z,50203.22
2023-05-17T20:53:57.696Z,50186.43
2023-05-17T20:56:26.038Z,50208.42
2023-05-17T20:58:54.236Z,50188.83
2023-05-17T21:01:22.677Z,50193.23
2023-05-17T21:03:51.675Z,50182.43
2023-05-17T21:06:22.468Z,50190.03
2023-05-17T21:08:52.193Z,50184.43
2023-05-17T21:11:23.733Z,50187.23
2023-05-17T21:13:51.959Z,50198.02
2023-05-17T21:16:20.233Z,50191.63
2023-05-17T21:18:48.526Z,50200.02
2023-05-17T21:21:18.114Z,50204.82
2023-05-17T21:23:46.315Z,50186.43
2023-05-17T21:26:14.695Z,50189.23
2023-05-17T21:28:42.897Z,50186.03
2023-05-17T21:31:15.744Z,50196.02
2023-05-17T21:33:44.117Z,50200.43
2023-05-17T21:36:12.305Z,50195.62
2023-05-17T21:38:40.754Z,50188.03
2023-05-17T21:41:09.461Z,50186.43
2023-05-17T21:43:40.105Z,50184.83
2023-05-17T21:46:08.409Z,50196.82
2023-05-17T21:48:36.646Z,50200.42
2023-05-17T21:51:04.884Z,50200.82
2023-05-17T21:53:33.033Z,50179.23
2023-05-17T21:56:03.034Z,50208.42
2023-05-17T21:58:32.330Z,50198.43
2023-05-17T22:01:02.387Z,50178.43
2023-05-17T22:03:30.845Z,50187.63
2023-05-17T22:05:59.137Z,50201.23
2023-05-17T22:08:27.404Z,50197.63
2023-05-17T22:10:57.228Z,50198.82
2023-05-17T22:13:26.494Z,50216.02
2023-05-17T22:15:58.703Z,50197.62
2023-05-17T22:18:27.286Z,50204.02
2023-05-17T22:20:59.692Z,50199.63
2023-05-17T22:23:28.115Z,50205.22
2023-05-17T22:26:00.379Z,50216.42
2023-05-17T22:28:28.899Z,50194.02
2023-05-17T22:30:59.912Z,50193.63
2023-05-17T22:33:29.834Z,50176.03
2023-05-17T22:36:02.621Z,50195.62
2023-05-17T22:38:30.874Z,50215.62
2023-05-17T22:40:59.054Z,50215.22
2023-05-17T22:43:28.300Z,50188.43
2023-05-17T22:46:00.042Z,50200.02
2023-05-17T22:48:30.538Z,50199.23
2023-05-17T22:51:01.147Z,50194.02
2023-05-17T22:53:30.510Z,50192.83
2023-05-17T22:55:58.882Z,50197.63
2023-05-17T22:58:27.010Z,50202.43
2023-05-17T23:00:56.172Z,50194.43
2023-05-17T23:03:24.417Z,50199.22
2023-05-17T23:06:02.341Z,50204.82
2023-05-17T23:08:32.009Z,50194.02
2023-05-17T23:11:01.906Z,50211.22
2023-05-17T23:13:30.276Z,50208.02
2023-05-17T23:15:58.459Z,50188.03
2023-05-17T23:18:27.712Z,50184.43
2023-05-17T23:20:56.494Z,50195.23
2023-05-17T23:23:24.632Z,50205.62
2023-05-17T23:25:56.608Z,50205.62
2023-05-17T23:28:25.349Z,50207.62
2023-05-17T23:30:54.711Z,50201.62
2023-05-17T23:33:22.829Z,50196.02
2023-05-17T23:35:51.421Z,50207.23
2023-05-17T23:38:19.701Z,50194.43
2023-05-17T23:40:47.948Z,50204.42
2023-05-17T23:43:16.076Z,50200.43
2023-05-17T23:45:44.229Z,50214.02
2023-05-17T23:48:12.483Z,50204.42
2023-05-17T23:50:43.664Z,50196.02
2023-05-17T23:53:11.882Z,50201.23
2023-05-17T23:55:41.024Z,50193.23
2023-05-17T23:58:09.235Z,50193.23
